Terminal Aerodrome Forecast
Issued by NWS Louisville, KY

Home | Current Version | Previous Version | Text Only | Print | Product List | Glossary On
Versions: 1 2 3 4 5 6 7 8 9 10 11 12 13 14 15
994
FTUS43 KLMK 242320
TAFSDF
TAF
KSDF 242320Z 2500/2606 22007KT P6SM VCTS SCT050CB BKN250
     FM250100 20003KT P6SM FEW050 SCT250
      TEMPO 2510/2513 5SM HZ
     FM251500 23007KT P6SM SCT050 SCT250 PROB30 2518/2524 VRB15G25KT
      3SM TSRA BKN040CB
     FM260000 VRB04KT P6SM SCT050 BKN250=

USA.gov is the U.S. government's official web portal to all federal, state and local government web resources and services.